Bluffton, MN

1:05 AM CST on February 13, 2016 (GMT -0600)
Wadena Municipal

Weather History for KADC - June, 2014

Change the Weather History Date:

Monday, June 23, 2014

  Actual Average Record
Temperature  
Mean Temperature 65 °F -  
Max Temperature 75 °F - - ()
Min Temperature 55 °F - - ()
Growing Degree Days 15 (Base 50)    
Moisture  
Dew Point 58 °F    
Average Humidity 75    
Maximum Humidity 100    
Minimum Humidity 53    
Precipitation  
Precipitation 0.00 in - - ()
Sea Level Pressure  
Sea Level Pressure 29.87 in    
Wind  
Wind Speed 3 mph (West)    
Max Wind Speed 12 mph    
Max Gust Speed 17 mph    
Visibility 10 miles    
Events      
T = Trace of Precipitation, MM = Missing Value Source: NWS Daily Summary

Daily Weather History Graph

Daily Weather History Graph

Search for Another Location

Airport or City:

Trip Planner

Search our weather history database for the weather conditions in past years. The results will help you decide how hot, cold, wet, or windy it might be!

Date:

Astronomy

Jun. 23, 2014 Rise Set
Actual Time 5:28 AM CDT 9:17 PM CDT
Civil Twilight 4:49 AM CDT 9:56 PM CDT
Nautical Twilight 3:56 AM CDT 10:49 PM CDT
Astronomical Twilight 2:39 AM CDT 12:06 AM CDT
Moon 3:05 AM CDT (6/23) 5:51 PM CDT (6/23)
Length of Visible Light 17h 07m
Length of Day
15h 48m
Waning Crescent, 13% of the Moon is Illuminated
Jun 23
Waning Crescent
Jun 27
New
Jul 5
First Quarter
Jul 12
Full
Jul 18
Last Quarter

Hourly Weather History & Observations

Time (CDT) Temp. Dew Point Humidity Pressure Visibility Wind Dir Wind Speed Gust Speed Precip Events Conditions
12:14 AM 62.6 °F 57.2 °F 82% 29.86 in 10.0 mi Calm Calm - N/A   Clear
12:35 AM 62.6 °F 57.2 °F 82% 29.86 in 10.0 mi Calm Calm - N/A   Clear
1:15 AM 60.8 °F 57.2 °F 88% 29.85 in 10.0 mi Calm Calm - N/A   Clear
1:35 AM 60.8 °F 57.2 °F 88% 29.85 in 10.0 mi Calm Calm - N/A   Clear
1:53 AM 60.8 °F 57.2 °F 88% 29.85 in 10.0 mi Calm Calm - N/A   Clear
2:14 AM 59.0 °F 57.2 °F 94% 29.86 in 10.0 mi West 3.5 mph - N/A   Clear
2:34 AM 59.0 °F 57.2 °F 94% 29.86 in 10.0 mi West 4.6 mph - N/A   Clear
2:53 AM 59.0 °F 57.2 °F 94% 29.86 in 10.0 mi West 4.6 mph - N/A   Clear
3:15 AM 57.2 °F 55.4 °F 94% 29.85 in 10.0 mi Calm Calm - N/A   Clear
3:35 AM 57.2 °F 55.4 °F 94% 29.85 in 10.0 mi West 3.5 mph - N/A   Clear
3:53 AM 57.2 °F 55.4 °F 94% 29.83 in 10.0 mi Calm Calm - N/A   Clear
4:15 AM 55.4 °F 53.6 °F 94% 29.83 in 1.8 mi Calm Calm - N/A   Mist
4:35 AM 55.4 °F 55.4 °F 100% 29.84 in 10.0 mi Calm Calm - N/A   Scattered Clouds
4:53 AM 55.4 °F 55.4 °F 100% 29.85 in 10.0 mi West 3.5 mph - N/A   Clear
5:15 AM 55.4 °F 55.4 °F 100% 29.86 in 10.0 mi Calm Calm - N/A   Clear
5:35 AM 55.4 °F 55.4 °F 100% 29.86 in 10.0 mi Calm Calm - N/A   Clear
5:53 AM 55.4 °F 55.4 °F 100% 29.86 in 10.0 mi Calm Calm - N/A   Clear
6:15 AM 57.2 °F 55.4 °F 94% 29.86 in 10.0 mi Calm Calm - N/A   Clear
6:35 AM 57.2 °F 55.4 °F 94% 29.87 in 10.0 mi Calm Calm - N/A   Clear
6:52 AM 59.0 °F 57.2 °F 94% 29.87 in 10.0 mi Calm Calm - N/A   Clear
7:15 AM 60.8 °F 59.0 °F 94% 29.87 in 10.0 mi Calm Calm - N/A   Clear
7:35 AM 62.6 °F 60.8 °F 94% 29.88 in 10.0 mi Calm Calm - N/A   Clear
7:52 AM 64.4 °F 60.8 °F 88% 29.88 in 10.0 mi West 5.8 mph - N/A   Clear
8:14 AM 64.4 °F 60.8 °F 88% 29.87 in 10.0 mi West 5.8 mph - N/A   Clear
8:34 AM 66.2 °F 60.8 °F 83% 29.88 in 10.0 mi West 8.1 mph - N/A   Clear
8:53 AM 66.2 °F 60.8 °F 83% 29.88 in 10.0 mi West 6.9 mph - N/A   Clear
9:15 AM 68.0 °F 60.8 °F 78% 29.88 in 10.0 mi WNW 8.1 mph - N/A   Clear
9:35 AM 69.8 °F 60.8 °F 73% 29.88 in 10.0 mi West 6.9 mph - N/A   Clear
9:52 AM 69.8 °F 60.8 °F 73% 29.88 in 10.0 mi NW 9.2 mph - N/A   Clear
10:15 AM 69.8 °F 57.2 °F 64% 29.88 in 10.0 mi WNW 5.8 mph - N/A   Clear
10:35 AM 71.6 °F 57.2 °F 60% 29.88 in 10.0 mi NW 9.2 mph - N/A   Clear
10:52 AM 71.6 °F 57.2 °F 60% 29.88 in 10.0 mi West 5.8 mph - N/A   Clear
11:15 AM 71.6 °F 57.2 °F 60% 29.89 in 10.0 mi West 6.9 mph - N/A   Scattered Clouds
11:35 AM 73.4 °F 59.0 °F 61% 29.89 in 10.0 mi WNW 8.1 mph - N/A   Scattered Clouds
11:52 AM 73.4 °F 57.2 °F 57% 29.89 in 10.0 mi West 6.9 mph - N/A   Clear
12:35 PM 73.4 °F 57.2 °F 57% 29.89 in 10.0 mi West 11.5 mph - N/A   Clear
12:53 PM 73.4 °F 57.2 °F 57% 29.89 in 10.0 mi West 10.4 mph - N/A   Clear
1:15 PM 73.4 °F 57.2 °F 57% 29.89 in 10.0 mi NW 6.9 mph - N/A   Scattered Clouds
1:35 PM 73.4 °F 57.2 °F 57% 29.89 in 10.0 mi West 9.2 mph - N/A   Clear
2:15 PM 73.4 °F 57.2 °F 57% 29.89 in 10.0 mi WNW 8.1 mph 17.3 mph N/A   Mostly Cloudy
2:34 PM 73.4 °F 57.2 °F 57% 29.89 in 10.0 mi WNW 10.4 mph - N/A   Scattered Clouds
3:35 PM 73.4 °F 57.2 °F 57% 29.89 in 10.0 mi WNW 5.8 mph 9.2 mph N/A   Scattered Clouds
3:52 PM 73.4 °F 57.2 °F 57% 29.88 in 10.0 mi West 5.8 mph - N/A   Clear
4:14 PM 75.2 °F 59.0 °F 57% 29.88 in 10.0 mi WNW 6.9 mph - N/A   Clear
4:35 PM 75.2 °F 57.2 °F 53% 29.87 in 10.0 mi West 4.6 mph - N/A   Clear
4:52 PM 73.4 °F 57.2 °F 57% 29.87 in 10.0 mi NW 6.9 mph - N/A   Clear
5:14 PM 75.2 °F 59.0 °F 57% 29.86 in 10.0 mi NW 6.9 mph - N/A   Scattered Clouds
5:35 PM 75.2 °F 57.2 °F 53% 29.86 in 10.0 mi West 8.1 mph - N/A   Scattered Clouds
5:53 PM 73.4 °F 57.2 °F 57% 29.86 in 10.0 mi West 8.1 mph - N/A   Scattered Clouds
6:15 PM 73.4 °F 57.2 °F 57% 29.86 in 10.0 mi WNW 5.8 mph - N/A   Mostly Cloudy
6:35 PM 75.2 °F 57.2 °F 53% 29.85 in 10.0 mi West 8.1 mph - N/A   Scattered Clouds
6:52 PM 75.2 °F 57.2 °F 53% 29.85 in 10.0 mi WNW 8.1 mph - N/A   Clear
7:15 PM 73.4 °F 57.2 °F 57% 29.85 in 10.0 mi West 4.6 mph - N/A   Clear
7:34 PM 73.4 °F 57.2 °F 57% 29.86 in 10.0 mi WNW 3.5 mph - N/A   Clear
7:52 PM 73.4 °F 59.0 °F 61% 29.86 in 10.0 mi WNW 5.8 mph - N/A   Clear
8:14 PM 71.6 °F 59.0 °F 64% 29.86 in 10.0 mi WNW 3.5 mph - N/A   Clear
8:34 PM 71.6 °F 59.0 °F 64% 29.86 in 10.0 mi Calm Calm - N/A   Clear
8:53 PM 69.8 °F 59.0 °F 68% 29.87 in 10.0 mi Calm Calm - N/A   Clear
9:14 PM 66.2 °F 60.8 °F 83% 29.87 in 10.0 mi Calm Calm - N/A   Clear
9:35 PM 66.2 °F 59.0 °F 78% 29.88 in 10.0 mi Calm Calm - N/A   Clear
9:53 PM 64.4 °F 59.0 °F 83% 29.88 in 10.0 mi Calm Calm - N/A   Clear
10:14 PM 64.4 °F 57.2 °F 77% 29.89 in 10.0 mi Calm Calm - N/A   Clear
10:35 PM 62.6 °F 57.2 °F 82% 29.89 in 10.0 mi Calm Calm - N/A   Clear
10:53 PM 62.6 °F 57.2 °F 82% 29.89 in 10.0 mi Calm Calm - N/A   Clear
11:15 PM 62.6 °F 59.0 °F 88% 29.89 in 10.0 mi Calm Calm - N/A   Clear
11:34 PM 62.6 °F 57.2 °F 82% 29.89 in 10.0 mi Calm Calm - N/A   Clear
11:53 PM 60.8 °F 57.2 °F 88% 29.89 in 10.0 mi Calm Calm - N/A   Clear